Minot International Airport
KMOT : now visible

Airfield :











YOU CAN JOIN US ON...

 
LOGIN :

Register | Disclaimer

   EN    FR    IT 

 









Legend :    VFR   Marginal VFR   IFR   Intensive IFR   Very Intensive IFR
Visi :
Ceiling :
>= 8 km
>= 3000ft
5 to 8 km
1000 to 3000 ft
1500m to 5 km
500 to 1000 ft
800 to 1500m
200 to 500 ft
< 800m
< 200 ft
Symbols :   Thunderstorms  Fog  Heavy snow  Heavy precipitations  Wind > 20 kt







- Airport Elevation : 1716 ft
- IATA code : MOT


KMOT - Minot International

CURRENT METAR :
  • 202009Z 31006G18KT 4SM VCTS RA BR SCT008 BKN033 OVC090 17/15 A2970 RMK AO2 LTG DSNT N AND NW TSE08 PRESFR OCL LTG IC VCTS NW MOV NE P0006 T01670150

EXPIRED METARs :
  • 201954Z 29012G25KT 6SM TSRA BR BKN006 BKN013 OVC080 18/16 A2978 RMK AO2 LTG DSNT SW-N RAB52 TSB43 SLP081 LTGIC TS W MOV E P0001 T01830161
  • 201940Z 31007KT 10SM VCTS OVC006 19/18 A2976 RMK AO2 LTG DSNT SW-NW VCTS W MOV UNKN T01940178
  • 201930Z 34009KT 10SM BKN006 OVC015 20/18 A2975 RMK AO2 LTG DSNT SW-NW T02000178
  • 201907Z 33013G18KT 10SM FEW005 OVC015 21/19 A2974 RMK AO2 LTG DSNT SW AND W T02060189
  • 201854Z 34006KT 10SM OVC014 21/19 A2974 RMK AO2 LTG DSNT SW SLP064 T02060189
  • 201825Z 32006KT 10SM OVC014 21/19 A2975 RMK AO2 LTG DSNT N AND NW T02110189
  • 201813Z 31007KT 10SM SCT010 OVC017 21/19 A2975 RMK AO2 LTG DSNT NW T02110189
  • 201754Z 26006KT 10SM OVC009 22/19 A2975 RMK AO2 LTG DSNT W AND NW CIG 006V012 SLP070 60000 T02170194 10228 20172 53009

TAF KMOT
Valid from the 20 at 20:00 until the 21 at 18:00 UTC


202002Z 2020/2118 29012G25KT 6SM TSRA BR BKN006 OVC015CB
TEMPO 2020/2022 VRB25G40KT 2SM +TSRA BR BKN018CB
FM210200 31010KT P6SM VCSH SCT014 OVC029
FM211500 28011KT 5SM SHRA BR BKN007
No reported NOTAMs for that airfield.



MET'MAP, your aeronautical weather chart ! - Copyright ORBIFLY December 2007 - Disclaimer

ORBIFLY MET'MAP TEAM :

Programming & Development : Alexandra Zaïnal
Concept & Development : Baudouin d'Aumeries
Co-Development & Prog : Marc-Olivier Méhu
Technical & hardware support : Manuel Goepfert

Contact : metmap@orbifly.com




SOURCES & CREDITS :

   NOAA       Earth
Advisory